Time,TemperatureF,DewpointF,PressureIn,WindDirection,WindDirectionDegrees,WindSpeedMPH,WindSpeedGustMPH,Humidity,HourlyPrecipIn,Conditions,Clouds,dailyrainin,SoftwareType,DateUTC
2013-03-30 00:02:00,43.0,31.0,30.19,West,263,0.0,0.0,63,0.00,,,0.00,,2013-03-30 07:02:00,
2013-03-30 00:11:00,43.0,31.0,30.19,West,263,0.0,0.0,63,0.00,,,0.00,,2013-03-30 07:11:00,
2013-03-30 00:22:00,43.0,32.0,30.19,West,263,0.0,0.0,64,0.00,,,0.00,,2013-03-30 07:22:00,
2013-03-30 00:32:00,43.0,32.0,30.19,West,263,0.0,0.0,64,0.00,,,0.00,,2013-03-30 07:32:00,
2013-03-30 00:42:00,43.0,32.0,30.19,West,263,0.0,0.0,64,0.00,,,0.00,,2013-03-30 07:42:00,
2013-03-30 00:52:00,43.0,32.0,30.18,West,263,0.0,0.0,66,0.00,,,0.00,,2013-03-30 07:52:00,
2013-03-30 01:01:00,43.0,32.0,30.18,West,263,0.0,0.0,66,0.00,,,0.00,,2013-03-30 08:01:00,
2013-03-30 01:11:00,43.0,32.0,30.18,West,263,0.0,0.0,66,0.00,,,0.00,,2013-03-30 08:11:00,
2013-03-30 01:21:00,43.0,32.0,30.18,West,263,0.0,0.0,66,0.00,,,0.00,,2013-03-30 08:21:00,
2013-03-30 01:32:00,43.0,32.0,30.18,West,263,0.0,0.0,65,0.00,,,0.00,,2013-03-30 08:32:00,
2013-03-30 01:42:00,43.0,32.0,30.18,West,263,0.0,0.0,65,0.00,,,0.00,,2013-03-30 08:42:00,
2013-03-30 01:52:00,43.0,32.0,30.17,West,263,0.0,0.0,65,0.00,,,0.00,,2013-03-30 08:52:00,
2013-03-30 02:01:00,42.0,33.0,30.18,West,263,0.0,0.0,69,0.00,,,0.00,,2013-03-30 09:01:00,
2013-03-30 02:11:00,42.0,33.0,30.18,West,263,0.0,0.0,69,0.00,,,0.00,,2013-03-30 09:11:00,
2013-03-30 02:22:00,42.0,33.0,30.18,West,263,0.0,0.0,69,0.00,,,0.00,,2013-03-30 09:22:00,
2013-03-30 02:33:00,42.0,33.0,30.18,West,263,0.0,0.0,70,0.00,,,0.00,,2013-03-30 09:33:00,
2013-03-30 02:42:00,42.0,33.0,30.18,West,263,0.0,0.0,70,0.00,,,0.00,,2013-03-30 09:42:00,
2013-03-30 02:53:00,42.0,33.0,30.17,West,263,0.0,0.0,70,0.00,,,0.00,,2013-03-30 09:53:00,
2013-03-30 03:02:00,42.0,33.0,30.18,WSW,258,0.0,2.0,71,0.00,,,0.00,,2013-03-30 10:02:00,
2013-03-30 03:12:00,42.0,33.0,30.18,WSW,258,0.0,2.0,71,0.00,,,0.00,,2013-03-30 10:12:00,
2013-03-30 03:22:00,44.0,35.0,30.17,SW,219,2.0,4.0,71,0.00,,,0.00,,2013-03-30 10:22:00,
2013-03-30 03:32:00,47.0,26.0,30.18,SE,140,4.0,9.0,43,0.00,,,0.00,,2013-03-30 10:32:00,
2013-03-30 03:42:00,47.0,26.0,30.18,SE,140,4.0,9.0,43,0.00,,,0.00,,2013-03-30 10:42:00,
2013-03-30 03:52:00,48.0,27.0,30.17,South,191,1.0,11.0,43,0.00,,,0.00,,2013-03-30 10:52:00,
2013-03-30 04:02:00,48.0,25.0,30.17,South,179,0.0,0.0,41,0.00,,,0.00,,2013-03-30 11:02:00,
2013-03-30 04:12:00,48.0,25.0,30.17,South,179,0.0,0.0,41,0.00,,,0.00,,2013-03-30 11:12:00,
2013-03-30 04:22:00,47.0,25.0,30.16,South,179,0.0,0.0,42,0.00,,,0.00,,2013-03-30 11:22:00,
2013-03-30 04:32:00,47.0,26.0,30.16,South,179,0.0,0.0,43,0.00,,,0.00,,2013-03-30 11:32:00,
2013-03-30 04:42:00,47.0,26.0,30.16,South,179,0.0,0.0,43,0.00,,,0.00,,2013-03-30 11:42:00,
2013-03-30 04:52:00,45.0,24.0,30.16,South,179,0.0,0.0,43,0.00,,,0.00,,2013-03-30 11:52:00,
2013-03-30 05:02:00,45.0,24.0,30.16,South,179,0.0,0.0,43,0.00,,,0.00,,2013-03-30 12:02:00,
2013-03-30 05:12:00,45.0,24.0,30.16,South,179,0.0,0.0,43,0.00,,,0.00,,2013-03-30 12:12:00,
2013-03-30 05:22:00,45.0,24.0,30.16,South,179,0.0,0.0,43,0.00,,,0.00,,2013-03-30 12:22:00,
2013-03-30 05:32:00,45.0,24.0,30.16,South,179,0.0,0.0,43,0.00,,,0.00,,2013-03-30 12:32:00,
2013-03-30 05:42:00,45.0,24.0,30.16,South,179,0.0,0.0,43,0.00,,,0.00,,2013-03-30 12:42:00,
2013-03-30 05:53:00,43.0,28.0,30.16,South,179,0.0,0.0,55,0.00,,,0.00,,2013-03-30 12:53:00,
2013-03-30 06:02:00,43.0,28.0,30.16,South,179,0.0,0.0,55,0.00,,,0.00,,2013-03-30 13:02:00,
2013-03-30 06:12:00,43.0,28.0,30.16,South,179,0.0,0.0,55,0.00,,,0.00,,2013-03-30 13:12:00,
2013-03-30 06:22:00,43.0,28.0,30.16,South,179,0.0,0.0,55,0.00,,,0.00,,2013-03-30 13:22:00,
2013-03-30 06:31:00,43.0,28.0,30.16,South,179,0.0,0.0,55,0.00,,,0.00,,2013-03-30 13:31:00,
2013-03-30 06:52:00,41.0,29.0,30.16,South,179,0.0,0.0,61,0.00,,,0.00,,2013-03-30 13:52:00,
2013-03-30 07:02:00,40.0,28.0,30.15,South,179,0.0,1.0,62,0.00,,,0.00,,2013-03-30 14:02:00,
2013-03-30 07:11:00,40.0,28.0,30.15,South,179,0.0,1.0,62,0.00,,,0.00,,2013-03-30 14:11:00,
2013-03-30 07:22:00,40.0,28.0,30.15,South,179,0.0,1.0,62,0.00,,,0.00,,2013-03-30 14:22:00,
2013-03-30 07:32:00,41.0,29.0,30.16,South,179,0.0,0.0,61,0.00,,,0.00,,2013-03-30 14:32:00,
2013-03-30 07:42:00,41.0,29.0,30.16,South,179,0.0,0.0,61,0.00,,,0.00,,2013-03-30 14:42:00,
2013-03-30 07:52:00,43.0,29.0,30.16,South,179,0.0,1.0,58,0.00,,,0.00,,2013-03-30 14:52:00,
2013-03-30 08:02:00,44.0,30.0,30.16,SW,220,0.0,2.0,57,0.00,,,0.00,,2013-03-30 15:02:00,
2013-03-30 08:12:00,44.0,30.0,30.16,SW,220,0.0,2.0,57,0.00,,,0.00,,2013-03-30 15:12:00,
2013-03-30 08:22:00,47.0,33.0,30.16,SW,223,0.0,0.0,57,0.00,,,0.00,,2013-03-30 15:22:00,
2013-03-30 08:33:00,48.0,34.0,30.16,SW,223,0.0,0.0,57,0.00,,,0.00,,2013-03-30 15:33:00,
2013-03-30 08:42:00,48.0,34.0,30.16,SW,223,0.0,0.0,57,0.00,,,0.00,,2013-03-30 15:42:00,
2013-03-30 08:52:00,49.0,30.0,30.16,SW,223,0.0,2.0,47,0.00,,,0.00,,2013-03-30 15:52:00,
2013-03-30 09:02:00,51.0,26.0,30.16,WNW,294,0.0,2.0,38,0.00,,,0.00,,2013-03-30 16:02:00,
2013-03-30 09:12:00,52.0,27.0,30.16,WSW,250,0.0,0.0,38,0.00,,,0.00,,2013-03-30 16:12:00,
2013-03-30 09:22:00,52.0,27.0,30.16,WSW,250,0.0,0.0,38,0.00,,,0.00,,2013-03-30 16:22:00,
2013-03-30 09:32:00,52.0,24.0,30.16,SW,229,1.0,5.0,33,0.00,,,0.00,,2013-03-30 16:32:00,
2013-03-30 09:42:00,52.0,24.0,30.16,SW,229,1.0,5.0,33,0.00,,,0.00,,2013-03-30 16:42:00,
2013-03-30 09:52:00,54.0,24.0,30.16,WSW,239,0.0,0.0,31,0.00,,,0.00,,2013-03-30 16:52:00,
2013-03-30 10:02:00,55.0,24.0,30.16,SW,229,1.0,2.0,30,0.00,,,0.00,,2013-03-30 17:02:00,
2013-03-30 10:12:00,55.0,24.0,30.16,SW,229,1.0,2.0,30,0.00,,,0.00,,2013-03-30 17:12:00,
2013-03-30 10:22:00,55.0,24.0,30.16,SW,229,1.0,2.0,30,0.00,,,0.00,,2013-03-30 17:22:00,
2013-03-30 10:31:00,56.0,25.0,30.16,SW,223,0.0,1.0,30,0.00,,,0.00,,2013-03-30 17:31:00,
2013-03-30 10:42:00,56.0,25.0,30.16,SW,223,0.0,1.0,30,0.00,,,0.00,,2013-03-30 17:42:00,
2013-03-30 10:52:00,57.0,25.0,30.17,North,7,0.0,4.0,29,0.00,,,0.00,,2013-03-30 17:52:00,
2013-03-30 11:02:00,58.0,25.0,30.17,NNE,21,1.0,5.0,28,0.00,,,0.00,,2013-03-30 18:02:00,
2013-03-30 11:12:00,59.0,26.0,30.17,NE,41,0.0,0.0,28,0.00,,,0.00,,2013-03-30 18:12:00,
2013-03-30 11:21:00,59.0,26.0,30.17,NE,41,0.0,0.0,28,0.00,,,0.00,,2013-03-30 18:21:00,
2013-03-30 11:32:00,60.0,27.0,30.17,East,80,0.0,6.0,28,0.00,,,0.00,,2013-03-30 18:32:00,
2013-03-30 11:42:00,60.0,27.0,30.17,East,80,0.0,6.0,28,0.00,,,0.00,,2013-03-30 18:42:00,
2013-03-30 11:52:00,61.0,26.0,30.17,NNE,16,0.0,2.0,26,0.00,,,0.00,,2013-03-30 18:52:00,
2013-03-30 12:02:00,59.0,26.0,30.17,NE,47,0.0,0.0,28,0.00,,,0.00,,2013-03-30 19:02:00,
2013-03-30 12:11:00,59.0,26.0,30.17,NE,47,0.0,0.0,28,0.00,,,0.00,,2013-03-30 19:11:00,
2013-03-30 12:21:00,60.0,27.0,30.17,NNE,16,1.0,5.0,28,0.00,,,0.00,,2013-03-30 19:21:00,
2013-03-30 12:32:00,59.0,26.0,30.17,NE,54,0.0,2.0,28,0.00,,,0.00,,2013-03-30 19:32:00,
2013-03-30 12:42:00,59.0,26.0,30.17,NE,54,0.0,2.0,28,0.00,,,0.00,,2013-03-30 19:42:00,
2013-03-30 12:52:00,61.0,28.0,30.17,NNE,21,1.0,6.0,28,0.00,,,0.00,,2013-03-30 19:52:00,
2013-03-30 13:02:00,59.0,25.0,30.17,NNE,21,0.0,10.0,27,0.00,,,0.00,,2013-03-30 20:02:00,
2013-03-30 13:11:00,59.0,25.0,30.17,NNE,21,0.0,10.0,27,0.00,,,0.00,,2013-03-30 20:11:00,
2013-03-30 13:21:00,59.0,25.0,30.17,NE,45,0.0,0.0,27,0.00,,,0.00,,2013-03-30 20:21:00,
2013-03-30 13:32:00,58.0,25.0,30.17,WNW,302,0.0,4.0,28,0.00,,,0.00,,2013-03-30 20:32:00,
2013-03-30 13:42:00,58.0,25.0,30.17,WNW,302,0.0,4.0,28,0.00,,,0.00,,2013-03-30 20:42:00,
2013-03-30 13:52:00,58.0,26.0,30.17,NW,312,0.0,0.0,29,0.00,,,0.00,,2013-03-30 20:52:00,
2013-03-30 14:02:00,58.0,28.0,30.16,WNW,299,0.0,0.0,32,0.00,,,0.00,,2013-03-30 21:02:00,
2013-03-30 14:12:00,58.0,28.0,30.16,WNW,299,0.0,0.0,32,0.00,,,0.00,,2013-03-30 21:12:00,
2013-03-30 14:22:00,58.0,32.0,30.16,West,263,0.0,2.0,37,0.00,,,0.00,,2013-03-30 21:22:00,
2013-03-30 14:33:00,58.0,30.0,30.16,SW,230,0.0,4.0,34,0.00,,,0.00,,2013-03-30 21:33:00,
2013-03-30 14:43:00,58.0,30.0,30.16,SW,230,0.0,4.0,34,0.00,,,0.00,,2013-03-30 21:43:00,
2013-03-30 14:52:00,57.0,30.0,30.16,WNW,298,0.0,5.0,35,0.00,,,0.00,,2013-03-30 21:52:00,
2013-03-30 15:02:00,56.0,27.0,30.16,SW,220,0.0,5.0,33,0.00,,,0.00,,2013-03-30 22:02:00,
2013-03-30 15:12:00,56.0,27.0,30.16,SW,220,0.0,5.0,33,0.00,,,0.00,,2013-03-30 22:12:00,
2013-03-30 15:23:00,56.0,27.0,30.15,SW,227,1.0,5.0,32,0.00,,,0.00,,2013-03-30 22:23:00,
2013-03-30 15:32:00,57.0,28.0,30.15,North,349,1.0,0.0,33,0.00,,,0.00,,2013-03-30 22:32:00,
2013-03-30 15:42:00,57.0,28.0,30.15,North,349,1.0,0.0,33,0.00,,,0.00,,2013-03-30 22:42:00,
2013-03-30 15:52:00,60.0,28.0,30.15,SW,217,3.0,10.0,30,0.00,,,0.00,,2013-03-30 22:52:00,
2013-03-30 16:02:00,61.0,26.0,30.14,SSW,208,2.0,11.0,26,0.00,,,0.00,,2013-03-30 23:02:00,
2013-03-30 16:12:00,61.0,26.0,30.14,SSW,208,2.0,11.0,26,0.00,,,0.00,,2013-03-30 23:12:00,
2013-03-30 16:22:00,61.0,25.0,30.14,ESE,114,2.0,9.0,25,0.00,,,0.00,,2013-03-30 23:22:00,
2013-03-30 16:32:00,60.0,25.0,30.14,SW,216,4.0,11.0,26,0.00,,,0.00,,2013-03-30 23:32:00,
2013-03-30 16:42:00,60.0,25.0,30.14,SW,216,4.0,11.0,26,0.00,,,0.00,,2013-03-30 23:42:00,
2013-03-30 16:52:00,59.0,24.0,30.14,WSW,248,4.0,11.0,26,0.00,,,0.00,,2013-03-30 23:52:00,
2013-03-30 17:02:00,58.0,22.0,30.13,SW,230,4.0,9.0,25,0.00,,,0.00,,2013-03-31 00:02:00,
2013-03-30 17:11:00,58.0,22.0,30.13,SW,230,4.0,9.0,25,0.00,,,0.00,,2013-03-31 00:11:00,
2013-03-30 17:22:00,57.0,20.0,30.14,SSW,196,3.0,11.0,23,0.00,,,0.00,,2013-03-31 00:22:00,
2013-03-30 17:32:00,56.0,23.0,30.13,SW,222,3.0,12.0,27,0.00,,,0.00,,2013-03-31 00:32:00,
2013-03-30 17:42:00,56.0,23.0,30.13,SW,222,3.0,12.0,27,0.00,,,0.00,,2013-03-31 00:42:00,
2013-03-30 17:52:00,55.0,22.0,30.13,West,278,1.0,10.0,27,0.00,,,0.00,,2013-03-31 00:52:00,
2013-03-30 18:02:00,54.0,23.0,30.13,South,185,4.0,12.0,30,0.00,,,0.00,,2013-03-31 01:02:00,
2013-03-30 18:11:00,54.0,23.0,30.13,South,185,4.0,12.0,30,0.00,,,0.00,,2013-03-31 01:11:00,
2013-03-30 18:22:00,53.0,22.0,30.13,WSW,243,2.0,12.0,30,0.00,,,0.00,,2013-03-31 01:22:00,
2013-03-30 18:32:00,52.0,27.0,30.13,SW,233,3.0,11.0,37,0.00,,,0.00,,2013-03-31 01:32:00,
2013-03-30 18:42:00,52.0,27.0,30.13,SW,233,3.0,11.0,37,0.00,,,0.00,,2013-03-31 01:42:00,
2013-03-30 18:52:00,51.0,26.0,30.14,WSW,250,3.0,11.0,37,0.00,,,0.00,,2013-03-31 01:52:00,
2013-03-30 19:02:00,50.0,28.0,30.14,SSW,212,1.0,6.0,42,0.00,,,0.00,,2013-03-31 02:02:00,
2013-03-30 19:11:00,50.0,28.0,30.14,SSW,212,1.0,6.0,42,0.00,,,0.00,,2013-03-31 02:11:00,
2013-03-30 19:21:00,49.0,27.0,30.14,SSW,203,2.0,6.0,42,0.00,,,0.00,,2013-03-31 02:21:00,
2013-03-30 19:32:00,48.0,29.0,30.14,SW,216,0.0,0.0,48,0.00,,,0.00,,2013-03-31 02:32:00,
2013-03-30 19:42:00,48.0,29.0,30.14,SW,216,0.0,0.0,48,0.00,,,0.00,,2013-03-31 02:42:00,
2013-03-30 19:52:00,47.0,28.0,30.13,SW,216,0.0,0.0,48,0.00,,,0.00,,2013-03-31 02:52:00,
2013-03-30 20:02:00,47.0,28.0,30.13,SW,216,0.0,0.0,48,0.00,,,0.00,,2013-03-31 03:02:00,
2013-03-30 20:11:00,47.0,28.0,30.13,SW,216,0.0,0.0,48,0.00,,,0.00,,2013-03-31 03:11:00,
2013-03-30 20:21:00,45.0,27.0,30.14,SW,216,0.0,0.0,48,0.00,,,0.00,,2013-03-31 03:21:00,
2013-03-30 20:33:00,45.0,32.0,30.14,SW,216,0.0,0.0,60,0.00,,,0.00,,2013-03-31 03:33:00,
2013-03-30 20:43:00,45.0,32.0,30.14,SW,216,0.0,0.0,60,0.00,,,0.00,,2013-03-31 03:43:00,
2013-03-30 20:53:00,44.0,33.0,30.14,SW,216,0.0,0.0,65,0.00,,,0.00,,2013-03-31 03:53:00,
2013-03-30 21:02:00,44.0,-99.9,30.14,NW,313,0.0,0.0,65,0.00,,,0.00,,2013-03-31 04:02:00,
2013-03-30 21:12:00,44.0,33.0,30.14,NW,313,0.0,0.0,65,0.00,,,0.00,,2013-03-31 04:12:00,
2013-03-30 21:22:00,43.0,33.0,30.14,NW,313,0.0,0.0,67,0.00,,,0.00,,2013-03-31 04:22:00,
2013-03-30 21:32:00,42.0,32.0,30.14,NW,313,0.0,0.0,67,0.00,,,0.00,,2013-03-31 04:32:00,
2013-03-30 21:42:00,42.0,32.0,30.14,NW,313,0.0,0.0,67,0.00,,,0.00,,2013-03-31 04:42:00,
2013-03-30 21:52:00,42.0,32.0,30.14,NW,313,0.0,0.0,67,0.00,,,0.00,,2013-03-31 04:52:00,
2013-03-30 22:02:00,42.0,32.0,30.14,NW,313,0.0,0.0,67,0.00,,,0.00,,2013-03-31 05:02:00,
2013-03-30 22:12:00,42.0,32.0,30.14,NW,313,0.0,0.0,67,0.00,,,0.00,,2013-03-31 05:12:00,
2013-03-30 22:22:00,39.0,30.0,30.14,NW,313,0.0,0.0,71,0.00,,,0.00,,2013-03-31 05:22:00,
2013-03-30 22:32:00,39.0,30.0,30.14,NW,313,0.0,0.0,71,0.00,,,0.00,,2013-03-31 05:32:00,
2013-03-30 22:42:00,39.0,30.0,30.14,NW,313,0.0,0.0,71,0.00,,,0.00,,2013-03-31 05:42:00,
2013-03-30 22:53:00,38.0,30.0,30.14,NW,313,0.0,1.0,72,0.00,,,0.00,,2013-03-31 05:53:00,
2013-03-30 23:01:00,38.0,30.0,30.14,NW,313,0.0,0.0,73,0.00,,,0.00,,2013-03-31 06:01:00,
2013-03-30 23:11:00,38.0,30.0,30.14,NW,313,0.0,0.0,73,0.00,,,0.00,,2013-03-31 06:11:00,
2013-03-30 23:22:00,37.0,29.0,30.14,NW,313,0.0,1.0,74,0.00,,,0.00,,2013-03-31 06:22:00,
2013-03-30 23:32:00,37.0,30.0,30.14,NW,313,0.0,0.0,75,0.00,,,0.00,,2013-03-31 06:32:00,
2013-03-30 23:42:00,37.0,30.0,30.14,NW,313,0.0,0.0,75,0.00,,,0.00,,2013-03-31 06:42:00,
2013-03-30 23:52:00,37.0,30.0,30.14,NW,313,0.0,0.0,75,0.00,,,0.00,,2013-03-31 06:52:00,